Dades meteomassalio
Diari Summary for Juny 25, 2017 Units:  English    Metric   Both
« Previous Day
Next Day »
Diari Semanal Mensual Anual Personalitzat
  Maxima: Minima: Mijana:
Temperatura: TemperatureC °F 21.8 °F 26.3 °F
Rosada: DewpointC °F 14.3 °F 16.3 °F
Humitat: Humidity % 43 % 55 %
Velocitat del vent: WindSpeedKMH mph 0.0 mph 8.7 mph
Racha vent: WindSpeedGustKMH mph - -
Vent:- - South
Pressio: PressurehPa in 1010.4 in -
Pluja: 0.0 in    
Historical Graphs
 
 
Tabular Data for Juny 25, 2017
Time Temperature Dew Point Pressure Wind Wind Speed Wind Gust Humidity Rainfall Rate (Hourly) solar Conditions
TemperatureC °F DewpointC °F PressurehPa in Calm     Humidity % HourlyPrecipMM in SolarRadiationWatts/m^2 W/m2 Conditions
00:00 26.3 °F 17.9 °F 1015.1 in NW 9.7 mph 9.7 mph 60 % 0.0 in 0.0 W/m2 CLR
00:05 26.4 °F 16.9 °F 1015.5 in NW 13.0 mph 13.0 mph 56 % 0.0 in 0.0 W/m2 CLR
00:10 26.6 °F 15.9 °F 1015.5 in WNW 13.0 mph 13.0 mph 52 % 0.0 in 0.0 W/m2 CLR
00:15 26.6 °F 15.6 °F 1015.5 in WNW 13.0 mph 13.0 mph 51 % 0.0 in 0.0 W/m2 CLR
00:16 26.6 °F 15.6 °F 1015.5 in West 13.0 mph 13.0 mph 51 % 0.0 in 0.0 W/m2 CLR
00:21 26.5 °F 15.2 °F 1015.5 in NW 24.1 mph 24.1 mph 50 % 0.0 in 0.0 W/m2 CLR
00:26 26.4 °F 14.8 °F 1015.8 in West 20.4 mph 20.4 mph 49 % 0.0 in 0.0 W/m2 CLR
00:31 26.3 °F 15.0 °F 1015.8 in NW 1.9 mph   50 % 0.0 in 0.0 W/m2 CLR
00:36 26.2 °F 14.9 °F 1015.8 in NW 6.4 mph 6.4 mph 50 % 0.0 in 0.0 W/m2 CLR
00:41 26.0 °F 14.8 °F 1015.8 in WSW 13.0 mph 13.0 mph 50 % 0.0 in 0.0 W/m2 CLR
00:46 25.8 °F 14.6 °F 1015.8 in WSW 7.4 mph 7.4 mph 50 % 0.0 in 0.0 W/m2 CLR
00:51 25.7 °F 14.5 °F 1015.8 in Calm   1.3 mph 50 % 0.0 in 0.0 W/m2 CLR
00:56 25.6 °F 14.4 °F 1015.8 in Calm     50 % 0.0 in 0.0 W/m2 CLR
01:01 25.6 °F 14.7 °F 1015.8 in West 9.7 mph 9.7 mph 51 % 0.0 in 0.0 W/m2 CLR
01:06 25.5 °F 14.6 °F 1016.1 in West 18.5 mph 18.5 mph 51 % 0.0 in 0.0 W/m2 CLR
01:11 25.4 °F 14.5 °F 1016.1 in WNW 9.3 mph 9.3 mph 51 % 0.0 in 0.0 W/m2 CLR
01:16 25.3 °F 14.4 °F 1016.1 in West 13.0 mph 13.0 mph 51 % 0.0 in 0.0 W/m2 CLR
01:21 25.3 °F 14.4 °F 1016.1 in WSW 11.3 mph 11.3 mph 51 % 0.0 in 0.0 W/m2 CLR
01:26 25.2 °F 14.7 °F 1016.1 in West 16.1 mph 16.1 mph 52 % 0.0 in 0.0 W/m2 CLR
01:31 25.1 °F 14.5 °F 1016.1 in NW 13.0 mph 13.0 mph 52 % 0.0 in 0.0 W/m2 CLR
01:36 24.9 °F 14.7 °F 1016.1 in WNW 9.3 mph 9.3 mph 53 % 0.0 in 0.0 W/m2 CLR
01:41 24.8 °F 14.6 °F 1016.1 in WNW 11.1 mph 11.1 mph 53 % 0.0 in 0.0 W/m2 CLR
01:46 24.8 °F 14.6 °F 1016.1 in WNW 14.8 mph 14.8 mph 53 % 0.0 in 0.0 W/m2 CLR
01:51 24.6 °F 14.7 °F 1016.1 in WNW 14.8 mph 14.8 mph 54 % 0.0 in 0.0 W/m2 CLR
01:56 24.5 °F 14.6 °F 1016.1 in West 5.6 mph 5.6 mph 54 % 0.0 in 0.0 W/m2 CLR
02:01 24.3 °F 14.7 °F 1016.5 in West 14.5 mph 14.5 mph 55 % 0.0 in 0.0 W/m2 CLR
02:06 24.3 °F 14.7 °F 1016.5 in West 11.1 mph 11.1 mph 55 % 0.0 in 0.0 W/m2 CLR
02:11 24.1 °F 14.8 °F 1016.5 in West 13.0 mph 13.0 mph 56 % 0.0 in 0.0 W/m2 CLR
02:16 24.0 °F 14.7 °F 1016.5 in SW 7.4 mph 7.4 mph 56 % 0.0 in 0.0 W/m2 CLR
02:21 23.9 °F 14.6 °F 1016.5 in WSW 11.1 mph 11.1 mph 56 % 0.0 in 0.0 W/m2 CLR
02:26 23.8 °F 14.7 °F 1016.5 in West 13.0 mph 13.0 mph 57 % 0.0 in 0.0 W/m2 CLR
02:31 23.7 °F 14.7 °F 1016.5 in West 9.7 mph 9.7 mph 57 % 0.0 in 0.0 W/m2 CLR
02:36 23.6 °F 14.6 °F 1016.1 in WNW 13.0 mph 13.0 mph 57 % 0.0 in 0.0 W/m2 CLR
02:41 23.5 °F 14.5 °F 1016.1 in West 14.8 mph 14.8 mph 57 % 0.0 in 0.0 W/m2 CLR
02:46 23.4 °F 14.7 °F 1016.1 in West 11.3 mph 11.3 mph 58 % 0.0 in 0.0 W/m2 CLR
02:51 23.3 °F 14.6 °F 1016.5 in West 14.8 mph 14.8 mph 58 % 0.0 in 0.0 W/m2 CLR
02:56 23.3 °F 14.6 °F 1016.5 in WSW 13.0 mph 13.0 mph 58 % 0.0 in 0.0 W/m2 CLR
03:01 23.2 °F 14.5 °F 1016.5 in West 13.0 mph 13.0 mph 58 % 0.0 in 0.0 W/m2 CLR
03:06 23.2 °F 14.5 °F 1016.5 in West 14.8 mph 14.8 mph 58 % 0.0 in 0.0 W/m2 CLR
03:11 23.2 °F 14.4 °F 1016.5 in WSW 11.1 mph 11.1 mph 58 % 0.0 in 0.0 W/m2 CLR
03:16 23.2 °F 14.4 °F 1016.5 in WNW 9.7 mph 9.7 mph 58 % 0.0 in 0.0 W/m2 CLR
03:21 23.1 °F 14.4 °F 1016.5 in WSW 9.3 mph 9.3 mph 58 % 0.0 in 0.0 W/m2 CLR
03:26 23.1 °F 14.7 °F 1016.5 in WSW 9.3 mph 9.3 mph 59 % 0.0 in 0.0 W/m2 CLR
03:31 23.1 °F 14.6 °F 1016.1 in SW 5.6 mph 5.6 mph 59 % 0.0 in 0.0 W/m2 CLR
03:36 23.0 °F 14.6 °F 1016.1 in West 11.3 mph 11.3 mph 59 % 0.0 in 0.0 W/m2 CLR
03:41 22.9 °F 14.5 °F 1016.1 in WSW 7.4 mph 7.4 mph 59 % 0.0 in 0.0 W/m2 CLR
03:46 22.9 °F 14.4 °F 1016.1 in WSW 1.9 mph 1.9 mph 59 % 0.0 in 0.0 W/m2 CLR
03:51 22.8 °F 14.4 °F 1015.8 in WSW 11.1 mph 11.1 mph 59 % 0.0 in 0.0 W/m2 CLR
03:56 22.8 °F 14.3 °F 1015.8 in Calm     59 % 0.0 in 0.0 W/m2 CLR
04:01 22.7 °F 14.6 °F 1015.8 in SW 7.4 mph 7.4 mph 60 % 0.0 in 0.0 W/m2 CLR
04:06 22.7 °F 14.5 °F 1015.8 in WSW 5.6 mph 5.6 mph 60 % 0.0 in 0.0 W/m2 CLR
04:07 22.7 °F 14.5 °F 1015.8 in WSW 5.6 mph 5.6 mph 60 % 0.0 in 0.0 W/m2 CLR
04:12 22.6 °F 14.4 °F 1015.5 in Calm     60 % 0.0 in 0.0 W/m2 CLR
04:17 22.6 °F 14.4 °F 1015.5 in Calm     60 % 0.0 in 0.0 W/m2 CLR
04:22 22.6 °F 14.4 °F 1015.8 in Calm     60 % 0.0 in 0.0 W/m2 CLR
04:27 22.5 °F 14.6 °F 1015.8 in Calm     61 % 0.0 in 0.0 W/m2 CLR
04:32 22.5 °F 14.6 °F 1015.5 in Calm     61 % 0.0 in 0.0 W/m2 CLR
04:37 22.5 °F 14.6 °F 1015.5 in Calm     61 % 0.0 in 0.0 W/m2 CLR
04:42 22.5 °F 14.6 °F 1015.5 in Calm     61 % 0.0 in 0.0 W/m2 CLR
04:47 22.5 °F 14.6 °F 1015.5 in Calm     61 % 0.0 in 0.0 W/m2 CLR
04:52 22.5 °F 14.6 °F 1015.8 in West 9.3 mph 9.3 mph 61 % 0.0 in 0.0 W/m2 CLR
05:02 22.6 °F 14.7 °F 1015.5 in West 7.4 mph 7.4 mph 61 % 0.0 in 0.0 W/m2 CLR
05:07 22.7 °F 14.8 °F 1015.5 in West 3.2 mph 3.2 mph 61 % 0.0 in 0.0 W/m2 CLR
05:12 22.6 °F 14.7 °F 1015.1 in Calm     61 % 0.0 in 0.0 W/m2 CLR
05:17 22.6 °F 14.7 °F 1015.1 in Calm     61 % 0.0 in 0.0 W/m2 CLR
05:22 22.6 °F 14.7 °F 1015.1 in Calm     61 % 0.0 in 0.0 W/m2 CLR
05:27 22.6 °F 14.7 °F 1015.1 in Calm     61 % 0.0 in 0.0 W/m2 CLR
05:32 22.6 °F 14.7 °F 1015.5 in Calm     61 % 0.0 in 0.0 W/m2 CLR
05:37 22.6 °F 14.7 °F 1015.5 in Calm     61 % 0.0 in 0.0 W/m2 CLR
05:42 22.5 °F 14.6 °F 1015.5 in Calm     61 % 0.0 in 0.0 W/m2 CLR
05:47 22.5 °F 14.6 °F 1015.5 in Calm     61 % 0.0 in 0.0 W/m2 CLR
05:52 22.4 °F 14.6 °F 1015.5 in Calm     61 % 0.0 in 0.0 W/m2 CLR
05:57 22.3 °F 14.4 °F 1015.5 in WNW 6.4 mph 6.4 mph 61 % 0.0 in 0.0 W/m2 CLR
06:02 22.3 °F 14.7 °F 1015.8 in Calm     62 % 0.0 in 0.0 W/m2 CLR
06:07 22.2 °F 14.6 °F 1015.8 in WNW 7.4 mph 7.4 mph 62 % 0.0 in 0.0 W/m2 CLR
06:12 22.2 °F 14.6 °F 1015.8 in WNW 5.6 mph 5.6 mph 62 % 0.0 in 0.0 W/m2 CLR
06:17 22.2 °F 14.6 °F 1015.8 in Calm     62 % 0.0 in 0.0 W/m2 CLR
06:22 22.1 °F 14.7 °F 1015.8 in NW 3.7 mph 3.7 mph 63 % 0.0 in 0.0 W/m2 OVC
06:27 22.1 °F 14.7 °F 1015.8 in Calm     63 % 0.0 in 0.0 W/m2 OVC
06:32 22.1 °F 14.7 °F 1015.8 in NW 3.7 mph   63 % 0.0 in 0.0 W/m2 OVC
06:37 22.0 °F 14.6 °F 1015.8 in Calm     63 % 0.0 in 0.0 W/m2 OVC
06:42 21.9 °F 14.6 °F 1015.8 in Calm     63 % 0.0 in 5.0 W/m2 OVC
06:47 21.9 °F 14.6 °F 1015.8 in Calm     63 % 0.0 in 5.0 W/m2 OVC
06:52 21.9 °F 14.5 °F 1015.8 in Calm     63 % 0.0 in 9.0 W/m2 BKN
06:57 21.9 °F 14.5 °F 1015.8 in Calm     63 % 0.0 in 14.0 W/m2 BKN
07:02 21.9 °F 14.5 °F 1015.8 in Calm     63 % 0.0 in 21.0 W/m2 BKN
07:07 21.9 °F 14.8 °F 1016.1 in Calm     64 % 0.0 in 30.0 W/m2 BKN
07:13 21.8 °F 14.7 °F 1016.1 in Calm     64 % 0.0 in 32.0 W/m2 BKN
07:18 21.8 °F 14.7 °F 1016.1 in Calm     64 % 0.0 in 35.0 W/m2 BKN
07:23 21.8 °F 14.7 °F 1016.1 in West 6.4 mph 6.4 mph 64 % 0.0 in 47.0 W/m2 SCT
07:28 21.8 °F 14.7 °F 1016.1 in NW 9.3 mph 9.3 mph 64 % 0.0 in 62.0 W/m2 SCT
07:33 21.8 °F 14.7 °F 1016.1 in Calm     64 % 0.0 in 83.0 W/m2 SCT
07:38 21.9 °F 14.8 °F 1016.1 in Calm     64 % 0.0 in 91.0 W/m2 FEW
07:43 21.9 °F 14.8 °F 1016.5 in Calm     64 % 0.0 in 102.0 W/m2 CLR
07:48 22.1 °F 15.0 °F 1016.5 in Calm     64 % 0.0 in 118.0 W/m2 CLR
07:53 22.2 °F 14.8 °F 1016.5 in Calm     63 % 0.0 in 137.0 W/m2 CLR
07:58 22.4 °F 15.0 °F 1016.5 in Calm     63 % 0.0 in 171.0 W/m2 CLR
08:03 22.5 °F 14.8 °F 1016.5 in NW 5.6 mph   62 % 0.0 in 185.0 W/m2 CLR
08:08 22.7 °F 15.0 °F 1016.5 in Calm   5.5 mph 62 % 0.0 in 202.0 W/m2 CLR
08:13 22.6 °F 14.9 °F 1016.5 in NW 13.0 mph 13.0 mph 62 % 0.0 in 216.0 W/m2 CLR
08:18 22.6 °F 14.9 °F 1016.5 in NW 13.0 mph 13.0 mph 62 % 0.0 in 199.0 W/m2 CLR
08:23 22.7 °F 14.8 °F 1016.8 in North 13.0 mph 13.0 mph 61 % 0.0 in 257.0 W/m2 CLR
08:28 22.8 °F 14.9 °F 1016.8 in NW 11.1 mph 11.1 mph 61 % 0.0 in 153.0 W/m2 CLR
08:33 22.7 °F 14.8 °F 1016.5 in WNW 9.3 mph 9.3 mph 61 % 0.0 in 139.0 W/m2 CLR
08:38 22.7 °F 14.8 °F 1016.8 in WNW 6.4 mph 6.4 mph 61 % 0.0 in 190.0 W/m2 CLR
08:43 22.8 °F 14.9 °F 1016.5 in NW 5.6 mph 5.6 mph 61 % 0.0 in 306.0 W/m2 CLR
08:48 23.1 °F 14.9 °F 1016.5 in West 4.8 mph 4.8 mph 60 % 0.0 in 299.0 W/m2 CLR
08:53 23.1 °F 14.7 °F 1016.5 in Calm     59 % 0.0 in 338.0 W/m2 CLR
08:58 23.2 °F 14.9 °F 1016.5 in NW 1.6 mph 1.6 mph 60 % 0.0 in 192.0 W/m2 CLR
09:03 23.4 °F 15.2 °F 1016.8 in Calm     60 % 0.0 in 373.0 W/m2 CLR
09:08 23.7 °F 15.2 °F 1016.5 in NNW 7.4 mph 7.4 mph 59 % 0.0 in 359.0 W/m2 CLR
09:13 23.9 °F 15.1 °F 1016.5 in NNW 11.3 mph 11.3 mph 58 % 0.0 in 385.0 W/m2 CLR
09:18 24.1 °F 15.0 °F 1016.5 in NW 5.6 mph 5.6 mph 57 % 0.0 in 387.0 W/m2 CLR
09:23 24.1 °F 15.1 °F 1016.5 in Calm     57 % 0.0 in 390.0 W/m2 CLR
09:28 24.3 °F 15.2 °F 1016.5 in Calm     57 % 0.0 in 401.0 W/m2 CLR
09:33 24.4 °F 15.1 °F 1016.5 in NW 1.9 mph 1.9 mph 56 % 0.0 in 417.0 W/m2 CLR
09:38 24.7 °F 15.3 °F 1016.5 in Calm     56 % 0.0 in 436.0 W/m2 CLR
09:43 24.9 °F 15.2 °F 1016.5 in NW 11.1 mph 11.1 mph 55 % 0.0 in 462.0 W/m2 CLR
09:48 25.1 °F 15.2 °F 1016.5 in NW 1.9 mph   54 % 0.0 in 519.0 W/m2 CLR
09:53 25.4 °F 15.4 °F 1016.5 in Calm   0.2 mph 54 % 0.0 in 613.0 W/m2 CLR
09:58 25.7 °F 15.4 °F 1016.1 in Calm     53 % 0.0 in 345.0 W/m2 CLR
10:03 25.9 °F 15.3 °F 1016.1 in Calm     52 % 0.0 in 250.0 W/m2 CLR
10:08 25.8 °F 15.2 °F 1016.1 in Calm     52 % 0.0 in 239.0 W/m2 CLR
10:13 25.7 °F 15.1 °F 1016.1 in Calm     52 % 0.0 in 297.0 W/m2 CLR
10:14 25.7 °F 15.1 °F 1016.1 in Calm     52 % 0.0 in 230.0 W/m2 CLR
10:19 25.6 °F 15.0 °F 1016.1 in Calm     52 % 0.0 in 169.0 W/m2 CLR
10:24 25.6 °F 15.3 °F 1016.1 in Calm     53 % 0.0 in 232.0 W/m2 CLR
10:29 25.5 °F 15.2 °F 1016.1 in Calm     53 % 0.0 in 260.0 W/m2 CLR
10:34 25.4 °F 15.2 °F 1015.8 in Calm     53 % 0.0 in 227.0 W/m2 CLR
10:40 25.6 °F 15.3 °F 1015.8 in Calm     53 % 0.0 in 274.0 W/m2 CLR
10:45 25.8 °F 15.2 °F 1015.8 in Calm     52 % 0.0 in 489.0 W/m2 CLR
10:50 26.3 °F 15.3 °F 1015.5 in Calm     51 % 0.0 in 478.0 W/m2 CLR
10:55 26.3 °F 15.1 °F 1015.5 in East 1.9 mph   50 % 0.0 in 308.0 W/m2 CLR
11:00 26.0 °F 15.1 °F 1015.5 in Calm     51 % 0.0 in 334.0 W/m2 CLR
11:05 26.2 °F 15.3 °F 1015.8 in Calm     51 % 0.0 in 687.0 W/m2 CLR
11:10 26.6 °F 15.3 °F 1015.8 in Calm     50 % 0.0 in 677.0 W/m2 CLR
11:15 26.9 °F 15.6 °F 1015.8 in Calm     50 % 0.0 in 698.0 W/m2 CLR
11:20 27.3 °F 15.7 °F 1015.8 in Calm     49 % 0.0 in 710.0 W/m2 CLR
11:25 27.8 °F 15.5 °F 1015.8 in Calm     47 % 0.0 in 724.0 W/m2 CLR
11:30 28.1 °F 15.7 °F 1015.8 in ENE 1.9 mph   47 % 0.0 in 742.0 W/m2 CLR
11:35 28.2 °F 15.4 °F 1015.8 in NNW 1.9 mph   46 % 0.0 in 770.0 W/m2 CLR
11:40 28.3 °F 15.6 °F 1015.8 in ENE 1.9 mph 1.9 mph 46 % 0.0 in 819.0 W/m2 CLR
11:45 28.4 °F 15.7 °F 1015.8 in Calm     46 % 0.0 in 888.0 W/m2 CLR
11:50 28.6 °F 15.8 °F 1015.5 in Calm   0.2 mph 46 % 0.0 in 438.0 W/m2 CLR
11:55 28.6 °F 15.8 °F 1015.5 in East 1.6 mph 1.6 mph 46 % 0.0 in 445.0 W/m2 CLR
12:00 28.3 °F 15.6 °F 1015.5 in ESE 1.9 mph 1.9 mph 46 % 0.0 in 454.0 W/m2 CLR
12:05 28.2 °F 15.8 °F 1015.5 in Calm     47 % 0.0 in 357.0 W/m2 CLR
12:10 28.2 °F 15.8 °F 1015.5 in NE 3.2 mph 3.2 mph 47 % 0.0 in 411.0 W/m2 CLR
12:15 28.5 °F 16.1 °F 1015.5 in Calm     47 % 0.0 in 411.0 W/m2 CLR
12:20 28.8 °F 16.1 °F 1015.5 in NNE 5.6 mph 5.6 mph 46 % 0.0 in 413.0 W/m2 CLR
12:25 28.9 °F 16.1 °F 1015.8 in NW 3.2 mph 3.2 mph 46 % 0.0 in 756.0 W/m2 CLR
12:30 29.1 °F 15.9 °F 1015.8 in Calm     45 % 0.0 in 441.0 W/m2 CLR
12:35 29.2 °F 16.1 °F 1015.5 in Calm     45 % 0.0 in 316.0 W/m2 CLR
12:40 29.2 °F 16.1 °F 1015.5 in Calm     45 % 0.0 in 230.0 W/m2 CLR
12:45 29.0 °F 15.9 °F 1015.1 in ENE 16.7 mph 16.7 mph 45 % 0.0 in 297.0 W/m2 CLR
12:50 28.8 °F 16.1 °F 1015.1 in North 1.9 mph 1.9 mph 46 % 0.0 in 378.0 W/m2 CLR
12:55 28.9 °F 16.2 °F 1015.1 in NE 5.6 mph 5.6 mph 46 % 0.0 in 480.0 W/m2 CLR
13:00 29.0 °F 16.2 °F 1015.1 in ENE 3.2 mph 3.2 mph 46 % 0.0 in 418.0 W/m2 CLR
13:05 29.0 °F 16.2 °F 1014.8 in Calm     46 % 0.0 in 385.0 W/m2 CLR
13:10 29.1 °F 16.3 °F 1014.8 in ESE 8.0 mph 8.0 mph 46 % 0.0 in 476.0 W/m2 CLR
13:15 29.3 °F 16.5 °F 1014.8 in ESE 11.3 mph 11.3 mph 46 % 0.0 in 519.0 W/m2 CLR
13:18 29.4 °F 16.6 °F 1014.8 in East 13.0 mph 13.0 mph 46 % 0.0 in 519.0 W/m2 CLR
13:23 29.3 °F 16.5 °F 1014.8 in ENE 5.6 mph 5.6 mph 46 % 0.0 in 362.0 W/m2 CLR
13:28 29.5 °F 16.7 °F 1014.8 in SE 5.6 mph   46 % 0.0 in 401.0 W/m2 CLR
13:33 29.7 °F 16.8 °F 1014.8 in Calm     46 % 0.0 in 728.0 W/m2 CLR
13:38 29.9 °F 17.0 °F 1014.4 in NE 9.3 mph 9.3 mph 46 % 0.0 in 450.0 W/m2 CLR
13:43 30.0 °F 17.4 °F 1014.4 in East 11.1 mph 11.1 mph 47 % 0.0 in 330.0 W/m2 CLR
13:48 30.0 °F 17.4 °F 1014.1 in ENE 9.3 mph 9.3 mph 47 % 0.0 in 388.0 W/m2 CLR
13:53 30.2 °F 17.9 °F 1014.1 in ENE 11.1 mph 11.1 mph 48 % 0.0 in 431.0 W/m2 CLR
13:58 30.7 °F 17.8 °F 1014.1 in East 18.5 mph 18.5 mph 46 % 0.0 in 981.0 W/m2 CLR
14:03 30.8 °F 17.9 °F 1014.1 in ENE 16.1 mph 16.1 mph 46 % 0.0 in 965.0 W/m2 CLR
14:08 31.1 °F 18.1 °F 1014.1 in East 20.4 mph 20.4 mph 46 % 0.0 in 904.0 W/m2 CLR
14:13 31.2 °F 18.2 °F 1014.1 in ENE 20.4 mph 20.4 mph 46 % 0.0 in 951.0 W/m2 CLR
14:18 31.6 °F 18.9 °F 1013.8 in NE 14.8 mph 14.8 mph 47 % 0.0 in 882.0 W/m2 CLR
14:23 32.0 °F 18.6 °F 1013.8 in East 13.0 mph 13.0 mph 45 % 0.0 in 949.0 W/m2 CLR
14:28 31.9 °F 17.8 °F 1013.4 in SE 18.5 mph 18.5 mph 43 % 0.0 in 888.0 W/m2 CLR
14:33 32.4 °F 18.2 °F 1013.4 in ESE 20.4 mph 20.4 mph 43 % 0.0 in 846.0 W/m2 CLR
14:38 32.5 °F 18.7 °F 1013.1 in ESE 18.5 mph 18.5 mph 44 % 0.0 in 601.0 W/m2 CLR
14:43 32.2 °F 18.4 °F 1013.1 in East 18.5 mph 18.5 mph 44 % 0.0 in 819.0 W/m2 CLR
14:48 32.3 °F 18.4 °F 1013.1 in East 22.2 mph 22.2 mph 44 % 0.0 in 872.0 W/m2 CLR
14:53 32.3 °F 18.8 °F 1013.1 in East 18.5 mph 18.5 mph 45 % 0.0 in 788.0 W/m2 CLR
14:58 32.0 °F 17.8 °F 1012.8 in East 20.4 mph 20.4 mph 43 % 0.0 in 422.0 W/m2 CLR
15:03 31.8 °F 18.4 °F 1012.8 in ESE 22.2 mph 22.2 mph 45 % 0.0 in 359.0 W/m2 CLR
15:08 31.7 °F 18.3 °F 1013.1 in ESE 24.1 mph 24.1 mph 45 % 0.0 in 327.0 W/m2 CLR
15:13 31.5 °F 18.5 °F 1012.8 in East 18.5 mph 18.5 mph 46 % 0.0 in 330.0 W/m2 CLR
15:18 31.5 °F 19.2 °F 1012.8 in ESE 16.7 mph 16.7 mph 48 % 0.0 in 336.0 W/m2 CLR
15:23 31.5 °F 19.5 °F 1012.8 in ESE 12.9 mph 12.9 mph 49 % 0.0 in 278.0 W/m2 CLR
15:28 31.3 °F 18.9 °F 1012.8 in ESE 13.0 mph 13.0 mph 48 % 0.0 in 234.0 W/m2 CLR
15:29 31.3 °F 19.3 °F 1012.8 in East 14.5 mph 14.5 mph 49 % 0.0 in 234.0 W/m2 CLR
15:34 31.0 °F 19.1 °F 1012.8 in East 13.0 mph 13.0 mph 49 % 0.0 in 269.0 W/m2 CLR
15:39 30.8 °F 19.5 °F 1012.8 in ESE 20.4 mph 20.4 mph 51 % 0.0 in 334.0 W/m2 CLR
15:44 30.6 °F 19.6 °F 1012.8 in ESE 14.8 mph 14.8 mph 52 % 0.0 in 427.0 W/m2 CLR
15:49 30.7 °F 20.0 °F 1012.8 in ESE 14.8 mph 14.8 mph 53 % 0.0 in 468.0 W/m2 CLR
15:54 30.6 °F 20.2 °F 1012.8 in East 18.5 mph 18.5 mph 54 % 0.0 in 417.0 W/m2 CLR
15:59 30.8 °F 20.1 °F 1012.4 in East 14.8 mph 14.8 mph 53 % 0.0 in 501.0 W/m2 CLR
16:04 30.7 °F 20.1 °F 1012.4 in ESE 13.0 mph 13.0 mph 53 % 0.0 in 413.0 W/m2 CLR
16:09 31.0 °F 20.3 °F 1012.1 in ENE 14.8 mph 14.8 mph 53 % 0.0 in 659.0 W/m2 CLR
16:14 31.0 °F 20.0 °F 1012.1 in East 18.5 mph 18.5 mph 52 % 0.0 in 369.0 W/m2 CLR
16:19 31.0 °F 20.0 °F 1011.7 in East 22.2 mph 22.2 mph 52 % 0.0 in 332.0 W/m2 CLR
16:24 31.1 °F 19.8 °F 1011.7 in SE 20.4 mph 20.4 mph 51 % 0.0 in 323.0 W/m2 CLR
16:29 31.5 °F 19.5 °F 1011.7 in SE 12.9 mph 17.1 mph 49 % 0.0 in 830.0 W/m2 CLR
16:34 31.8 °F 19.4 °F 1011.4 in SE 22.2 mph 22.2 mph 48 % 0.0 in 253.0 W/m2 CLR
16:39 31.7 °F 19.4 °F 1011.4 in ESE 18.5 mph 18.5 mph 48 % 0.0 in 243.0 W/m2 CLR
16:44 32.1 °F 19.0 °F 1011.4 in ESE 24.1 mph 24.1 mph 46 % 0.0 in 744.0 W/m2 CLR
16:49 31.9 °F 18.9 °F 1011.1 in SSE 18.5 mph 18.5 mph 46 % 0.0 in 302.0 W/m2 CLR
16:54 31.7 °F 18.7 °F 1011.4 in SE 29.6 mph 29.6 mph 46 % 0.0 in 171.0 W/m2 CLR
16:59 31.4 °F 19.1 °F 1011.4 in SE 24.1 mph 24.1 mph 48 % 0.0 in 127.0 W/m2 CLR
17:04 31.4 °F 18.7 °F 1011.4 in SE 18.5 mph 18.5 mph 47 % 0.0 in 98.0 W/m2 CLR
17:09 31.2 °F 18.8 °F 1011.4 in SE 18.5 mph 18.5 mph 48 % 0.0 in 86.0 W/m2 CLR
17:14 30.9 °F 18.6 °F 1011.1 in SSE 22.2 mph 22.2 mph 48 % 0.0 in 88.0 W/m2 CLR
17:19 30.7 °F 18.4 °F 1011.1 in SSE 25.9 mph 25.9 mph 48 % 0.0 in 81.0 W/m2 CLR
17:24 30.8 °F 18.6 °F 1011.4 in SSE 24.1 mph 24.1 mph 48 % 0.0 in 54.0 W/m2 FEW
17:29 30.8 °F 18.5 °F 1011.7 in ESE 19.3 mph 19.3 mph 48 % 0.0 in 42.0 W/m2 SCT
17:34 30.6 °F 18.3 °F 1011.4 in SE 13.0 mph 13.0 mph 48 % 0.0 in 49.0 W/m2 SCT
17:39 30.4 °F 18.2 °F 1011.7 in SE 14.8 mph 14.8 mph 48 % 0.0 in 42.0 W/m2 SCT
17:44 30.2 °F 18.3 °F 1012.1 in South 11.1 mph 11.1 mph 49 % 0.0 in 44.0 W/m2 SCT
17:49 30.1 °F 18.2 °F 1012.1 in South 14.8 mph 14.8 mph 49 % 0.0 in 47.0 W/m2 BKN
17:54 29.8 °F 18.3 °F 1012.1 in SSE 5.6 mph   50 % 0.0 in 67.0 W/m2 SCT
17:59 29.7 °F 18.8 °F 1012.1 in Calm     52 % 0.0 in 95.0 W/m2 SCT
18:04 29.4 °F 18.9 °F 1012.1 in Calm     53 % 0.0 in 123.0 W/m2 CLR
18:09 28.7 °F 19.3 °F 1012.4 in NNW 33.3 mph 33.3 mph 57 % 0.0 in 128.0 W/m2 CLR
18:14 27.2 °F 19.3 °F 1012.4 in North 37.0 mph 37.0 mph 62 % 0.0 in 127.0 W/m2 CLR
18:16 27.1 °F 19.2 °F 1012.4 in NNE 20.9 mph 20.9 mph 62 % 0.0 in 127.0 W/m2 CLR
18:21 26.8 °F 19.4 °F 1012.1 in NNE 27.8 mph 27.8 mph 64 % 0.0 in 132.0 W/m2 CLR
18:26 26.9 °F 19.5 °F 1012.1 in ENE 5.6 mph 5.6 mph 64 % 0.0 in 163.0 W/m2 CLR
18:31 27.1 °F 19.4 °F 1012.1 in ENE 1.9 mph   63 % 0.0 in 206.0 W/m2 CLR
18:36 27.4 °F 19.4 °F 1012.1 in Calm     62 % 0.0 in 204.0 W/m2 CLR
18:41 27.9 °F 19.2 °F 1012.1 in ESE 14.5 mph 14.5 mph 59 % 0.0 in 265.0 W/m2 CLR
18:46 28.3 °F 18.9 °F 1012.1 in ESE 16.7 mph 16.7 mph 57 % 0.0 in 195.0 W/m2 CLR
18:51 28.4 °F 19.1 °F 1011.7 in ESE 16.7 mph 16.7 mph 57 % 0.0 in 255.0 W/m2 CLR
18:56 28.4 °F 18.8 °F 1011.7 in ESE 20.4 mph 20.4 mph 56 % 0.0 in 394.0 W/m2 CLR
19:01 28.4 °F 18.8 °F 1011.4 in ESE 16.7 mph 16.7 mph 56 % 0.0 in 174.0 W/m2 CLR
19:06 28.6 °F 18.7 °F 1011.4 in ESE 20.4 mph 20.4 mph 55 % 0.0 in 376.0 W/m2 CLR
19:11 28.8 °F 18.9 °F 1011.4 in ESE 13.0 mph 13.0 mph 55 % 0.0 in 366.0 W/m2 CLR
19:16 29.0 °F 18.4 °F 1011.1 in ESE 20.9 mph 20.9 mph 53 % 0.0 in 345.0 W/m2 CLR
19:21 28.8 °F 18.3 °F 1011.1 in ESE 17.7 mph 17.7 mph 53 % 0.0 in 278.0 W/m2 CLR
19:26 28.6 °F 18.3 °F 1010.7 in ESE 18.5 mph 18.5 mph 54 % 0.0 in 62.0 W/m2 CLR
19:31 28.5 °F 18.6 °F 1010.7 in SE 20.9 mph 20.9 mph 55 % 0.0 in 70.0 W/m2 FEW
19:36 28.3 °F 18.4 °F 1010.7 in SE 16.7 mph 16.7 mph 55 % 0.0 in 95.0 W/m2 FEW
19:41 28.2 °F 18.3 °F 1010.4 in SE 17.7 mph 17.7 mph 55 % 0.0 in 63.0 W/m2 FEW
19:46 28.0 °F 18.4 °F 1010.4 in ESE 14.8 mph 14.8 mph 56 % 0.0 in 54.0 W/m2 FEW
19:51 27.9 °F 18.6 °F 1010.7 in SE 9.3 mph 9.3 mph 57 % 0.0 in 58.0 W/m2 SCT
19:56 27.9 °F 18.6 °F 1010.4 in SSE 9.7 mph 9.7 mph 57 % 0.0 in 60.0 W/m2 SCT
20:01 27.9 °F 18.3 °F 1010.4 in SE 18.5 mph 18.5 mph 56 % 0.0 in 60.0 W/m2 SCT
20:06 27.9 °F 18.3 °F 1010.4 in SE 18.5 mph 18.5 mph 56 % 0.0 in 62.0 W/m2 SCT
20:11 27.9 °F 18.3 °F 1010.4 in SE 14.8 mph 14.8 mph 56 % 0.0 in 58.0 W/m2 SCT
20:16 27.8 °F 17.9 °F 1010.4 in ESE 14.8 mph 14.8 mph 55 % 0.0 in 53.0 W/m2 SCT
20:21 27.7 °F 18.1 °F 1010.4 in SE 18.5 mph 18.5 mph 56 % 0.0 in 53.0 W/m2 SCT
20:26 27.6 °F 18.1 °F 1010.7 in SE 5.6 mph 5.6 mph 56 % 0.0 in 51.0 W/m2 SCT
20:31 27.6 °F 18.0 °F 1010.7 in SE 16.7 mph 16.7 mph 56 % 0.0 in 40.0 W/m2 SCT
20:36 27.4 °F 18.2 °F 1010.7 in SE 11.1 mph 11.1 mph 57 % 0.0 in 30.0 W/m2 BKN
20:41 27.4 °F 18.1 °F 1010.7 in SSE 9.3 mph 9.3 mph 57 % 0.0 in 26.0 W/m2 BKN
20:42 27.4 °F 18.1 °F 1011.1 in SE 8.0 mph 8.0 mph 57 % 0.0 in 25.0 W/m2 BKN
20:47 27.4 °F 18.1 °F 1011.1 in SSE 11.1 mph 11.1 mph 57 % 0.0 in 21.0 W/m2 BKN
20:52 27.3 °F 18.1 °F 1011.1 in SSE 14.8 mph 14.8 mph 57 % 0.0 in 18.0 W/m2 BKN
20:57 27.2 °F 17.9 °F 1011.1 in SE 13.0 mph 13.0 mph 57 % 0.0 in 16.0 W/m2 BKN
21:02 27.2 °F 18.2 °F 1011.1 in SE 13.0 mph 13.0 mph 58 % 0.0 in 14.0 W/m2 BKN
21:07 27.1 °F 18.1 °F 1010.7 in ESE 11.1 mph 11.1 mph 58 % 0.0 in 12.0 W/m2 BKN
21:12 26.9 °F 18.3 °F 1011.1 in SE 7.4 mph 7.4 mph 59 % 0.0 in 9.0 W/m2 BKN
21:17 26.9 °F 18.2 °F 1011.1 in ESE 6.4 mph 6.4 mph 59 % 0.0 in 7.0 W/m2 BKN
21:22 26.8 °F 18.1 °F 1010.7 in ESE 8.0 mph 8.0 mph 59 % 0.0 in 5.0 W/m2 OVC
21:27 26.7 °F 18.0 °F 1010.7 in ESE 9.3 mph 9.3 mph 59 % 0.0 in 0.0 W/m2 OVC
21:32 26.5 °F 18.1 °F 1010.7 in ESE 8.0 mph 8.0 mph 60 % 0.0 in 0.0 W/m2 OVC
21:37 26.4 °F 17.8 °F 1010.7 in Calm     59 % 0.0 in 0.0 W/m2 OVC
21:42 26.3 °F 17.7 °F 1010.7 in East 6.4 mph 6.4 mph 59 % 0.0 in 0.0 W/m2 OVC
21:47 26.3 °F 17.6 °F 1010.7 in Calm     59 % 0.0 in 0.0 W/m2 CLR
21:52 26.2 °F 17.5 °F 1011.1 in Calm     59 % 0.0 in 0.0 W/m2 CLR
21:57 26.1 °F 17.2 °F 1011.1 in ESE 5.6 mph 5.6 mph 58 % 0.0 in 0.0 W/m2 CLR
22:02 26.1 °F 16.9 °F 1011.1 in ESE 8.0 mph 8.0 mph 57 % 0.0 in 0.0 W/m2 CLR
22:07 26.1 °F 16.7 °F 1011.1 in East 9.3 mph 9.3 mph 56 % 0.0 in 0.0 W/m2 CLR
22:13 26.1 °F 16.7 °F 1011.1 in ESE 7.4 mph 7.4 mph 56 % 0.0 in 0.0 W/m2 CLR
22:17 26.0 °F 16.8 °F 1011.4 in East 13.0 mph 13.0 mph 57 % 0.0 in 0.0 W/m2 CLR
22:23 25.8 °F 16.9 °F 1011.4 in ENE 6.4 mph 6.4 mph 58 % 0.0 in 0.0 W/m2 CLR
22:28 25.7 °F 16.8 °F 1011.7 in Calm   0.5 mph 58 % 0.0 in 0.0 W/m2 CLR
22:33 25.6 °F 16.4 °F 1012.1 in Calm     57 % 0.0 in 0.0 W/m2 CLR
22:38 25.6 °F 16.2 °F 1012.8 in Calm     56 % 0.0 in 0.0 W/m2 CLR
22:43 25.6 °F 16.1 °F 1012.8 in Calm     56 % 0.0 in 0.0 W/m2 CLR
22:48 25.6 °F 16.7 °F 1012.4 in East 5.6 mph 5.6 mph 58 % 0.0 in 0.0 W/m2 CLR
22:53 25.4 °F 16.8 °F 1012.4 in SE 5.6 mph 5.6 mph 59 % 0.0 in 0.0 W/m2 CLR
22:58 25.2 °F 17.2 °F 1012.4 in SE 5.6 mph 5.6 mph 61 % 0.0 in 0.0 W/m2 CLR
23:03 25.2 °F 16.1 °F 1012.8 in SE 18.5 mph 18.5 mph 57 % 0.0 in 0.0 W/m2 CLR
23:08 25.2 °F 16.1 °F 1012.8 in SE 14.8 mph 14.8 mph 57 % 0.0 in 0.0 W/m2 CLR
23:13 25.1 °F 16.3 °F 1012.8 in SE 14.8 mph 14.8 mph 58 % 0.0 in 0.0 W/m2 CLR
23:18 25.0 °F 16.2 °F 1012.4 in SE 11.1 mph 11.1 mph 58 % 0.0 in 0.0 W/m2 CLR
23:23 24.9 °F 16.1 °F 1012.4 in SE 11.1 mph 11.1 mph 58 % 0.0 in 0.0 W/m2 CLR
23:28 24.8 °F 15.7 °F 1012.4 in SE 11.3 mph 11.3 mph 57 % 0.0 in 0.0 W/m2 CLR
23:33 24.8 °F 15.7 °F 1012.4 in SE 7.4 mph 7.4 mph 57 % 0.0 in 0.0 W/m2 CLR
23:38 24.7 °F 15.6 °F 1012.1 in ESE 6.4 mph 6.4 mph 57 % 0.0 in 0.0 W/m2 CLR
23:43 24.6 °F 15.5 °F 1012.1 in East 1.9 mph   57 % 0.0 in 0.0 W/m2 CLR
23:48 24.6 °F 15.5 °F 1012.1 in Calm     57 % 0.0 in 0.0 W/m2 CLR
23:53 24.4 °F 15.7 °F 1012.1 in Calm     58 % 0.0 in 0.0 W/m2 CLR
23:58 24.4 °F 15.3 °F 1012.4 in Calm     57 % 0.0 in 0.0 W/m2 CLR
Lo Temps de Massalio
Compliments of Weather Underground - 1.25 mb